Airfield :
LOGIN :

Register | Disclaimer

   EN    FR    IT 

 










Legend :    VFR   Marginal VFR   IFR   Intensive IFR   Very Intensive IFR
Visi :
Ceiling :
>= 8 km
>= 3000ft
5 to 8 km
1000 to 3000 ft
1500m to 5 km
500 to 1000 ft
800 to 1500m
200 to 500 ft
< 800m
< 200 ft
Symbols :   Thunderstorms  Fog  Heavy snow  Heavy precipitations  Wind > 20 kt
SIGMETs :     Misc.  Thunderstorms  Icing  Turbulence  Mountain Waves  Volcanic Ashes






- Airport Elevation : 636 ft


LPBJ - Beja Air Base

CURRENT METAR :
  • 230400Z 20005KT 9999 -RA SCT020 BKN040 09/08 Q1021

EXPIRED METARs :
  • 230300Z 22005KT 9999 FEW020 BKN040 10/09 Q1022
  • 230200Z 21005KT 9999 FEW020 BKN035 09/09 Q1022

TAF TAF LPBJ
Valid from the 23 at 00:00 until the 24 at 00:00 UTC


222300Z 2300/2324 25005KT 9999 SCT015
PROB30 2300/2309 0200 FG BKN002
BECMG 2308/2310 22012KT
BECMG 2310/2313 6000 -RA SCT012 BKN025
TEMPO 2312/2318 23015G28KT 2000 RADZ BR SCT008 BKN012
BECMG 2317/2319 SCT006 BKN010
TEMPO 2318/2324 22012KT 2000 RADZ BR SCT002 BKN005



MET'MAP, your aeronautical weather chart ! - Copyright ORBIFLY December 2007 - Disclaimer

ORBIFLY MET'MAP TEAM :

Programming & Development : Alexandra Zaïnal
Concept & original design : Baudouin d'Aumeries
Assistance for programming : Marc-Olivier Méhu
Technical & hardware support : Manuel Goepfert

Contact : metmap@orbifly.com




SOURCES & CREDITS :

   NOAA